Time;durP1;ratioP1;P1;durP2;ratioP2;P2;SDS_P1;SDS_P2;PMS_P1;PMS_P2;Temp;Humidity;BMP_temperature;BMP_pressure;BME280_temperature;BME280_humidity;BME280_pressure;Samples;Min_cycle;Max_cycle;Signal;HPM_P1;HPM_P2
2023/09/23 00:01:09;;;;;;;13.48;6.25;;;;;;;17.11;58.62;101159.23;1745731;82;21254;-61
2023/09/23 00:04:16;;;;;;;11.00;6.20;;;;;;;17.07;58.72;101162.05;1745538;82;21283;-61
2023/09/23 00:07:24;;;;;;;9.53;6.15;;;;;;;17.03;58.88;101156.05;1745740;81;21207;-62
2023/09/23 00:10:32;;;;;;;14.10;6.28;;;;;;;17.01;58.95;101154.55;1745921;82;21776;-59
2023/09/23 00:13:38;;;;;;;15.58;6.40;;;;;;;16.97;59.07;101160.13;1745460;82;21320;-59
2023/09/23 00:16:46;;;;;;;11.78;5.83;;;;;;;16.96;59.19;101162.07;1745694;82;21774;-58
2023/09/23 00:19:53;;;;;;;13.48;6.72;;;;;;;16.95;59.34;101163.10;1745771;82;21195;-61
2023/09/23 00:22:59;;;;;;;11.55;6.47;;;;;;;16.96;59.47;101169.50;1745557;82;21188;-61
2023/09/23 00:26:06;;;;;;;14.95;6.30;;;;;;;16.95;59.58;101169.19;1745580;81;21192;-61
2023/09/23 00:29:17;;;;;;;10.95;6.67;;;;;;;16.92;59.63;101165.44;1745236;82;21199;-60
2023/09/23 00:32:24;;;;;;;12.25;6.30;;;;;;;16.90;59.71;101173.06;1745740;82;21195;-62
2023/09/23 00:35:31;;;;;;;13.40;6.35;;;;;;;16.89;59.84;101174.09;1745729;82;21207;-61
2023/09/23 00:38:37;;;;;;;10.13;6.58;;;;;;;16.85;59.86;101170.03;1711297;84;21300;-61
2023/09/23 00:41:44;;;;;;;12.13;7.10;;;;;;;16.79;59.90;101168.89;1710925;84;21220;-61
2023/09/23 00:44:51;;;;;;;12.82;6.47;;;;;;;16.75;59.92;101169.48;1710906;82;21204;-61
2023/09/23 00:47:58;;;;;;;16.97;6.92;;;;;;;16.70;59.98;101161.78;1711021;84;21718;-61
2023/09/23 00:51:04;;;;;;;12.15;6.05;;;;;;;16.68;60.11;101165.81;1710747;84;21223;-61
2023/09/23 00:54:13;;;;;;;10.20;6.92;;;;;;;16.64;60.17;101154.80;1711015;84;21192;-61
2023/09/23 00:57:17;;;;;;;11.25;6.42;;;;;;;16.59;60.19;101158.67;1711118;82;21196;-61
2023/09/23 01:00:27;;;;;;;9.80;6.53;;;;;;;16.53;60.22;101157.56;1711037;84;21390;-62
2023/09/23 01:03:37;;;;;;;11.08;6.87;;;;;;;16.46;60.26;101153.02;1710885;84;21267;-62
2023/09/23 01:06:43;;;;;;;11.18;7.00;;;;;;;16.40;60.32;101151.84;1711168;84;21763;-62
2023/09/23 01:09:50;;;;;;;13.30;7.47;;;;;;;16.35;60.42;101159.34;1710812;84;21732;-63
2023/09/23 01:13:00;;;;;;;10.35;6.35;;;;;;;16.31;60.53;101159.93;1711143;84;21189;-62
2023/09/23 01:16:08;;;;;;;12.13;6.60;;;;;;;16.27;60.61;101155.82;1710664;84;21218;-61
2023/09/23 01:19:16;;;;;;;11.08;6.30;;;;;;;16.22;60.72;101155.03;1711030;84;21788;-62
2023/09/23 01:22:19;;;;;;;13.08;6.62;;;;;;;16.18;60.80;101157.86;1711636;83;21216;-60
2023/09/23 01:25:29;;;;;;;11.35;6.20;;;;;;;16.14;60.83;101152.37;1710774;84;21220;-61
2023/09/23 01:28:33;;;;;;;10.08;6.55;;;;;;;16.08;60.89;101153.15;1711014;84;21220;-61
2023/09/23 01:31:39;;;;;;;13.05;6.05;;;;;;;16.02;60.97;101159.45;1710840;83;21348;-61
2023/09/23 01:34:45;;;;;;;12.93;6.50;;;;;;;15.99;61.07;101163.11;1710941;84;21264;-61
2023/09/23 01:37:54;;;;;;;11.70;6.28;;;;;;;15.94;61.13;101169.73;1719398;81;21211;-60
2023/09/23 01:41:03;;;;;;;8.90;6.37;;;;;;;15.90;61.17;101163.73;1745717;82;21405;-60
2023/09/23 01:44:10;;;;;;;9.13;6.08;;;;;;;15.85;61.27;101163.98;1745701;82;21318;-61
2023/09/23 01:47:21;;;;;;;15.60;6.50;;;;;;;15.82;61.37;101163.86;1745679;82;21402;-61
2023/09/23 01:50:24;;;;;;;12.50;7.10;;;;;;;15.80;61.45;101163.18;1744974;82;21412;-62
2023/09/23 01:53:31;;;;;;;11.15;6.05;;;;;;;15.79;61.47;101158.69;1745624;82;21211;-63
2023/09/23 01:56:37;;;;;;;14.70;6.20;;;;;;;15.75;61.56;101160.13;1745766;82;21293;-58
2023/09/23 01:59:44;;;;;;;13.00;6.72;;;;;;;15.74;61.60;101157.56;1719762;82;21851;-60
2023/09/23 02:02:57;;;;;;;14.03;6.47;;;;;;;15.71;61.62;101158.81;1745664;82;21344;-61
2023/09/23 02:06:03;;;;;;;10.98;6.50;;;;;;;15.69;61.73;101167.80;1745703;82;21381;-61
2023/09/23 02:09:10;;;;;;;17.65;6.72;;;;;;;15.66;61.74;101159.89;1745674;82;21219;-61
2023/09/23 02:12:18;;;;;;;12.70;6.47;;;;;;;15.64;61.77;101160.60;1745747;82;21326;-61
2023/09/23 02:15:24;;;;;;;12.65;6.40;;;;;;;15.61;61.81;101170.64;1745601;81;21354;-61
2023/09/23 02:18:30;;;;;;;11.48;6.55;;;;;;;15.57;61.84;101166.53;1745617;81;21405;-62
2023/09/23 02:21:35;;;;;;;9.98;6.35;;;;;;;15.52;61.91;101170.41;1745642;82;21396;-61
2023/09/23 02:24:41;;;;;;;10.15;6.50;;;;;;;15.48;61.94;101171.81;1745738;82;21332;-60
2023/09/23 02:27:49;;;;;;;10.48;6.40;;;;;;;15.44;61.95;101177.39;1745472;82;21354;-61
2023/09/23 02:30:56;;;;;;;14.73;6.15;;;;;;;15.41;61.96;101183.80;1745262;81;21408;-62
2023/09/23 02:34:05;;;;;;;11.38;7.28;;;;;;;15.34;62.02;101183.66;1745459;82;22129;-59
2023/09/23 02:37:11;;;;;;;10.35;5.83;;;;;;;15.31;62.08;101180.41;1745598;81;21382;-61
2023/09/23 02:40:20;;;;;;;10.98;6.78;;;;;;;15.26;62.12;101183.73;1745996;79;21334;-61
2023/09/23 02:43:20;;;;;;;12.07;6.58;;;;;;;15.22;62.17;101186.54;1745578;82;21870;-61
2023/09/23 02:46:11;;;;;;;;;;;;;;;15.19;62.25;101184.12;1748221;81;21345;-61
2023/09/23 02:49:20;;;;;;;16.67;7.33;;;;;;;15.18;62.31;101182.94;1745446;82;20271;-61
2023/09/23 02:52:26;;;;;;;11.68;6.62;;;;;;;15.16;62.44;101190.02;1745596;82;21430;-61
2023/09/23 02:55:31;;;;;;;11.65;6.50;;;;;;;15.18;62.57;101193.45;1745473;81;22098;-62
2023/09/23 02:58:40;;;;;;;11.55;6.78;;;;;;;15.21;62.68;101180.67;1745687;82;21431;-61
2023/09/23 03:01:53;;;;;;;11.12;6.58;;;;;;;15.27;62.77;101194.25;1745257;82;21370;-62
2023/09/23 03:05:04;;;;;;;10.68;7.25;;;;;;;15.32;62.79;101193.17;1745730;82;21334;-61
2023/09/23 03:08:13;;;;;;;10.90;6.97;;;;;;;15.36;62.76;101191.74;1745663;82;21381;-61
2023/09/23 03:11:21;;;;;;;12.15;6.78;;;;;;;15.36;62.79;101195.87;1745238;82;21879;-62
2023/09/23 03:14:23;;;;;;;14.35;7.10;;;;;;;15.39;62.83;101196.92;1745307;81;21358;-62
2023/09/23 03:17:21;;;;;;;12.07;6.58;;;;;;;15.43;62.91;101199.11;1745825;82;21334;-62
2023/09/23 03:20:28;;;;;;;11.00;6.85;;;;;;;15.47;62.97;101193.56;1745712;82;21353;-62
2023/09/23 03:23:33;;;;;;;11.40;6.53;;;;;;;15.52;63.04;101199.39;1745571;82;21314;-61
2023/09/23 03:26:46;;;;;;;12.85;6.80;;;;;;;15.55;63.01;101192.11;1745628;82;21389;-61
2023/09/23 03:29:50;;;;;;;18.55;11.22;;;;;;;15.60;63.05;101198.44;1745321;82;21389;-62
2023/09/23 03:32:57;;;;;;;24.80;12.82;;;;;;;15.63;63.07;101204.45;1745619;82;21358;-62
2023/09/23 03:36:03;;;;;;;20.55;12.58;;;;;;;15.66;63.09;101205.96;1745236;82;21401;-63
2023/09/23 03:39:08;;;;;;;18.98;11.68;;;;;;;15.68;63.12;101210.23;1745440;82;21325;-60
2023/09/23 03:42:13;;;;;;;17.37;11.22;;;;;;;15.70;63.10;101216.94;1740680;82;21346;-61
2023/09/23 03:45:21;;;;;;;18.82;11.03;;;;;;;15.70;63.11;101219.70;1733932;81;21854;-62
2023/09/23 03:48:28;;;;;;;14.47;9.85;;;;;;;15.68;63.09;101219.06;1740643;82;21398;-62
2023/09/23 03:51:36;;;;;;;13.32;8.08;;;;;;;15.65;63.11;101220.27;1733826;82;21342;-62
2023/09/23 03:54:43;;;;;;;19.52;8.70;;;;;;;15.63;63.15;101224.28;1740421;82;21322;-61
2023/09/23 03:57:49;;;;;;;17.17;7.80;;;;;;;15.63;63.20;101226.53;1740689;82;21383;-62
2023/09/23 04:00:55;;;;;;;20.52;8.20;;;;;;;15.63;63.24;101230.67;1733973;82;21354;-62
2023/09/23 04:04:03;;;;;;;12.88;7.40;;;;;;;15.66;63.31;101232.19;1740641;82;21334;-62
2023/09/23 04:07:10;;;;;;;13.35;7.83;;;;;;;15.68;63.36;101231.48;1740823;81;21367;-62
2023/09/23 04:10:17;;;;;;;13.13;7.47;;;;;;;15.69;63.38;101235.44;1733509;82;21362;-62
2023/09/23 04:13:25;;;;;;;13.48;7.33;;;;;;;15.70;63.40;101234.38;1740843;82;21338;-61
2023/09/23 04:16:32;;;;;;;12.85;7.72;;;;;;;15.72;63.39;101232.80;1733840;82;21355;-60
2023/09/23 04:19:39;;;;;;;11.70;7.05;;;;;;;15.72;63.36;101240.58;1740106;82;21446;-60
2023/09/23 04:22:48;;;;;;;20.12;7.10;;;;;;;15.72;63.35;101234.19;1733669;82;21824;-60
2023/09/23 04:25:56;;;;;;;12.98;7.15;;;;;;;15.71;63.33;101241.62;1740757;82;21366;-62
2023/09/23 04:29:03;;;;;;;13.13;7.08;;;;;;;15.72;63.35;101241.95;1734093;82;21346;-62
2023/09/23 04:32:12;;;;;;;14.47;7.30;;;;;;;15.75;63.41;101246.23;1740473;82;21405;-63
2023/09/23 04:35:20;;;;;;;11.90;7.00;;;;;;;15.78;63.45;101252.23;1733835;82;21402;-63
2023/09/23 04:38:26;;;;;;;13.25;7.17;;;;;;;15.84;63.53;101253.41;1740885;82;21436;-62
2023/09/23 04:41:32;;;;;;;15.32;7.15;;;;;;;15.90;63.54;101261.77;1737217;78;21355;-62
2023/09/23 04:44:41;;;;;;;14.50;7.42;;;;;;;15.95;63.57;101260.67;1740999;82;21462;-62
2023/09/23 04:47:53;;;;;;;14.90;8.30;;;;;;;16.00;63.61;101265.11;1740681;82;21386;-61
2023/09/23 04:50:57;;;;;;;17.77;8.55;;;;;;;16.07;63.66;101263.84;1740716;82;21510;-63
2023/09/23 04:54:03;;;;;;;16.80;8.48;;;;;;;16.13;63.66;101271.36;1740876;82;21322;-62
2023/09/23 04:57:10;;;;;;;18.48;8.05;;;;;;;16.21;63.70;101270.75;1740912;82;21405;-61
2023/09/23 05:00:19;;;;;;;16.20;8.20;;;;;;;16.29;63.76;101258.22;1740833;82;21358;-61
2023/09/23 05:03:26;;;;;;;17.23;8.43;;;;;;;16.41;63.81;101265.52;1740868;82;21878;-61
2023/09/23 05:06:35;;;;;;;20.82;11.80;;;;;;;16.52;63.80;101266.95;1740460;82;21385;-62
2023/09/23 05:09:41;;;;;;;18.27;9.95;;;;;;;16.62;63.75;101274.43;1740743;82;21354;-62
2023/09/23 05:12:48;;;;;;;14.45;8.88;;;;;;;16.72;63.76;101274.96;1740398;82;21923;-59
2023/09/23 05:15:54;;;;;;;15.23;8.25;;;;;;;16.85;63.77;101277.89;1740741;82;21334;-60
2023/09/23 05:19:05;;;;;;;15.10;9.18;;;;;;;16.97;63.76;101266.64;1740747;82;21875;-60
2023/09/23 05:22:12;;;;;;;19.70;10.08;;;;;;;17.08;63.69;101264.73;1740298;82;21342;-59
2023/09/23 05:25:18;;;;;;;10.63;7.20;;;;;;;17.20;63.64;101261.80;1740481;81;21343;-60
2023/09/23 05:28:24;;;;;;;10.58;7.22;;;;;;;17.30;63.61;101263.72;1739530;82;21354;-60
2023/09/23 05:31:30;;;;;;;11.10;7.67;;;;;;;17.40;63.55;101268.38;1740101;82;21394;-60
2023/09/23 05:34:35;;;;;;;14.63;8.20;;;;;;;17.50;63.46;101264.79;1740447;82;21900;-59
2023/09/23 05:37:41;;;;;;;12.47;7.78;;;;;;;17.60;63.42;101268.92;1740974;82;21342;-60
2023/09/23 05:40:49;;;;;;;16.30;6.58;;;;;;;17.72;63.36;101269.23;1741063;82;21361;-59
2023/09/23 05:43:56;;;;;;;11.00;6.42;;;;;;;17.81;63.26;101270.80;1746265;79;21353;-60
2023/09/23 05:47:02;;;;;;;14.80;7.92;;;;;;;17.89;63.15;101267.87;1742870;81;21267;-59
2023/09/23 05:50:09;;;;;;;14.33;7.33;;;;;;;17.98;63.10;101268.07;1744064;82;21339;-58
2023/09/23 05:53:15;;;;;;;12.73;7.60;;;;;;;18.10;63.02;101271.11;1744542;80;21231;-60
2023/09/23 05:56:22;;;;;;;10.23;6.28;;;;;;;18.22;62.97;101273.11;1744497;82;21350;-59
2023/09/23 05:59:28;;;;;;;15.98;6.25;;;;;;;18.33;62.88;101267.55;1744315;82;21195;-59
2023/09/23 06:02:34;;;;;;;10.13;5.47;;;;;;;18.41;62.72;101261.31;1744973;82;21875;-59
2023/09/23 06:05:39;;;;;;;12.28;6.22;;;;;;;18.51;62.63;101271.52;1741772;82;21207;-58
2023/09/23 06:08:51;;;;;;;12.10;5.75;;;;;;;18.60;62.55;101273.04;1721874;81;21179;-59
2023/09/23 06:11:56;;;;;;;11.50;5.50;;;;;;;18.71;62.45;101268.84;1744349;82;21297;-58
2023/09/23 06:15:05;;;;;;;10.13;5.70;;;;;;;18.84;62.39;101277.19;1744534;82;21239;-57
2023/09/23 06:18:13;;;;;;;11.35;5.83;;;;;;;18.97;62.34;101270.30;1744529;82;21242;-60
2023/09/23 06:21:19;;;;;;;9.73;5.53;;;;;;;19.13;62.28;101277.73;1744511;82;21192;-61
2023/09/23 06:24:25;;;;;;;10.53;5.60;;;;;;;19.28;62.24;101283.14;1744432;82;21338;-59
2023/09/23 06:27:30;;;;;;;12.90;5.58;;;;;;;19.42;62.07;101278.45;1744748;82;21871;-57
2023/09/23 06:30:36;;;;;;;9.48;5.37;;;;;;;19.55;61.96;101279.87;1744675;82;21385;-58
2023/09/23 06:33:42;;;;;;;10.20;4.92;;;;;;;19.67;61.83;101283.19;1744809;81;21388;-58
2023/09/23 06:36:50;;;;;;;12.75;5.42;;;;;;;19.80;61.66;101275.38;1744926;82;21343;-59
2023/09/23 06:39:57;;;;;;;12.98;5.00;;;;;;;19.89;61.48;101285.20;1745249;82;21188;-58
2023/09/23 06:43:02;;;;;;;17.80;6.25;;;;;;;20.01;61.34;101284.89;1745206;81;21357;-59
2023/09/23 06:46:11;;;;;;;10.03;6.10;;;;;;;20.10;61.14;101292.80;1737616;81;21344;-59
2023/09/23 06:49:22;;;;;;;7.40;5.30;;;;;;;20.18;60.91;101283.41;1735347;82;21216;-58
2023/09/23 06:52:29;;;;;;;17.32;5.60;;;;;;;20.28;60.78;101283.82;1734843;82;21204;-59
2023/09/23 06:55:34;;;;;;;10.23;5.25;;;;;;;20.38;60.61;101280.89;1734762;82;21192;-60
2023/09/23 06:58:40;;;;;;;11.20;5.25;;;;;;;20.55;60.56;101279.34;1735186;82;21721;-59
2023/09/23 07:01:48;;;;;;;10.10;4.78;;;;;;;20.77;60.52;101285.49;1735525;81;21763;-61
2023/09/23 07:04:55;;;;;;;8.88;4.85;;;;;;;21.01;60.47;101285.30;1735739;81;21783;-57
2023/09/23 07:08:03;;;;;;;11.97;4.75;;;;;;;21.22;60.33;101279.38;1735808;81;21239;-59
2023/09/23 07:11:09;;;;;;;13.53;5.08;;;;;;;21.33;60.02;101271.70;1714267;82;21287;-61
2023/09/23 07:14:15;;;;;;;11.45;4.80;;;;;;;21.37;59.74;101275.23;1735868;82;21211;-60
2023/09/23 07:17:21;;;;;;;11.38;5.17;;;;;;;21.35;59.45;101273.73;1736320;82;21212;-58
2023/09/23 07:20:29;;;;;;;7.47;4.90;;;;;;;21.30;59.28;101271.63;1739959;81;21275;-60
2023/09/23 07:23:35;;;;;;;13.55;5.30;;;;;;;21.26;59.20;101280.13;1705946;84;21858;-61
2023/09/23 07:26:42;;;;;;;10.20;4.92;;;;;;;21.24;59.15;101279.49;1706776;83;21369;-59
2023/09/23 07:29:48;;;;;;;9.15;4.30;;;;;;;21.24;59.04;101278.09;1706163;83;21725;-61
2023/09/23 07:32:55;;;;;;;14.90;4.30;;;;;;;21.20;58.87;101283.78;1710620;82;21748;-61
2023/09/23 07:36:01;;;;;;;13.10;4.95;;;;;;;21.19;58.77;101286.27;1727138;82;21219;-58
2023/09/23 07:39:06;;;;;;;14.40;5.05;;;;;;;21.18;58.66;101291.53;1706687;83;21993;-60
2023/09/23 07:42:13;;;;;;;10.75;4.70;;;;;;;21.18;58.54;101279.53;1706208;83;21390;-60
2023/09/23 07:45:19;;;;;;;9.40;4.47;;;;;;;21.18;58.47;101280.39;1706554;83;21404;-60
2023/09/23 07:48:25;;;;;;;14.15;4.95;;;;;;;21.20;58.41;101282.39;1717563;82;21720;-59
2023/09/23 07:51:35;;;;;;;11.93;4.58;;;;;;;21.22;58.31;101280.25;1743732;82;21850;-58
2023/09/23 07:54:44;;;;;;;8.95;4.62;;;;;;;21.26;58.25;101272.30;1743691;82;21375;-60
2023/09/23 07:57:49;;;;;;;11.00;5.42;;;;;;;21.29;58.14;101275.50;1744276;82;21266;-60
2023/09/23 08:00:54;;;;;;;10.32;4.87;;;;;;;21.36;58.12;101283.26;1744888;81;21282;-61
2023/09/23 08:04:01;;;;;;;10.88;4.50;;;;;;;21.42;58.04;101285.14;1746596;80;21538;-57
2023/09/23 08:07:08;;;;;;;9.38;4.97;;;;;;;21.48;57.98;101288.45;1748967;81;21384;-59
2023/09/23 08:10:15;;;;;;;10.38;4.50;;;;;;;21.57;57.98;101294.05;1776269;81;21285;-59
2023/09/23 08:13:26;;;;;;;12.33;4.87;;;;;;;21.66;57.91;101300.22;1717652;82;21831;-57
2023/09/23 08:16:32;;;;;;;17.00;5.08;;;;;;;21.71;57.83;101294.27;1750866;81;21371;-59
2023/09/23 08:19:39;;;;;;;11.28;4.40;;;;;;;21.78;57.74;101300.69;1719753;81;21370;-58
2023/09/23 08:22:47;;;;;;;11.60;4.62;;;;;;;21.85;57.62;101301.47;1748760;81;21237;-59
2023/09/23 08:25:56;;;;;;;12.23;5.10;;;;;;;21.93;57.62;101294.22;1712712;83;21215;-62
2023/09/23 08:29:02;;;;;;;11.50;4.12;;;;;;;22.01;57.51;101289.75;1721663;82;21369;-61
2023/09/23 08:32:08;;;;;;;12.07;4.17;;;;;;;22.08;57.39;101289.70;1743647;82;21709;-65
2023/09/23 08:35:15;;;;;;;11.50;5.10;;;;;;;22.16;57.38;101283.30;1713680;83;21803;-58
2023/09/23 08:38:21;;;;;;;8.60;5.00;;;;;;;22.25;57.27;101275.46;1714446;83;21207;-58
2023/09/23 08:41:29;;;;;;;18.45;4.95;;;;;;;22.33;57.17;101275.70;1714232;83;21778;-58
2023/09/23 08:44:34;;;;;;;10.45;4.65;;;;;;;22.41;57.04;101267.02;1714467;83;21199;-56
2023/09/23 08:47:43;;;;;;;11.90;4.17;;;;;;;22.47;56.93;101259.14;1714379;81;21223;-58
2023/09/23 08:50:53;;;;;;;11.12;4.33;;;;;;;22.56;56.89;101260.03;1714205;83;21224;-61
2023/09/23 08:54:00;;;;;;;15.10;5.12;;;;;;;22.68;56.82;101271.25;1713530;83;21258;-61
2023/09/23 08:57:07;;;;;;;17.35;9.43;;;;;;;22.78;56.79;101262.66;1720136;81;21226;-59
2023/09/23 09:00:17;;;;;;;14.45;7.78;;;;;;;22.90;56.67;101268.28;1714454;81;21768;-61
2023/09/23 09:03:25;;;;;;;13.68;5.83;;;;;;;23.02;56.67;101270.08;1742660;82;21203;-61
2023/09/23 09:06:32;;;;;;;12.03;4.40;;;;;;;23.16;56.62;101272.13;1738982;81;21432;-58
2023/09/23 09:09:38;;;;;;;11.55;4.30;;;;;;;23.31;56.63;101263.66;1730621;82;21417;-60
2023/09/23 09:12:45;;;;;;;11.12;3.55;;;;;;;23.43;56.53;101266.50;1739701;80;21216;-59
2023/09/23 09:15:54;;;;;;;8.20;3.05;;;;;;;23.56;56.51;101262.10;1743620;82;21295;-61
2023/09/23 09:19:01;;;;;;;12.98;3.85;;;;;;;23.69;56.40;101265.23;1744435;82;21242;-62
2023/09/23 09:22:07;;;;;;;6.65;3.58;;;;;;;23.82;56.29;101259.42;1729280;81;21263;-59
2023/09/23 09:25:14;;;;;;;13.93;4.17;;;;;;;23.95;56.20;101264.23;1741484;81;22072;-59
2023/09/23 09:28:19;;;;;;;10.50;3.27;;;;;;;24.05;56.00;101268.72;1744474;82;21199;-59
2023/09/23 09:31:25;;;;;;;12.60;4.00;;;;;;;24.15;55.81;101261.95;1744293;82;21180;-60
2023/09/23 09:34:34;;;;;;;16.25;3.77;;;;;;;24.24;55.59;101274.50;1743849;82;21196;-60
2023/09/23 09:37:40;;;;;;;11.12;3.35;;;;;;;24.34;55.52;101271.09;1744680;82;21393;-57
2023/09/23 09:40:48;;;;;;;8.08;3.02;;;;;;;24.43;55.32;101265.41;1744073;82;21200;-58
2023/09/23 09:43:55;;;;;;;11.38;3.77;;;;;;;24.52;55.14;101276.53;1743986;82;21239;-59
2023/09/23 09:47:01;;;;;;;10.15;3.67;;;;;;;24.61;54.95;101261.08;1724473;82;21228;-60
2023/09/23 09:50:08;;;;;;;8.28;3.37;;;;;;;24.68;54.79;101261.27;1720403;81;21885;-60
2023/09/23 09:53:16;;;;;;;14.55;3.90;;;;;;;24.76;54.58;101264.23;1706366;83;21254;-61
2023/09/23 09:56:24;;;;;;;12.78;3.72;;;;;;;24.82;54.40;101255.69;1680096;84;21276;-58
2023/09/23 09:59:37;;;;;;;14.25;3.52;;;;;;;24.92;54.22;101251.71;1707759;81;21352;-59
2023/09/23 10:02:47;;;;;;;15.18;3.52;;;;;;;24.99;54.02;101252.40;1678559;83;21275;-58
2023/09/23 10:05:56;;;;;;;10.18;3.42;;;;;;;25.10;53.87;101248.41;1706637;83;21218;-60
2023/09/23 10:09:01;;;;;;;9.85;3.67;;;;;;;25.19;53.70;101249.70;1721004;81;21218;-61
2023/09/23 10:12:05;;;;;;;16.40;3.62;;;;;;;25.30;53.51;101253.00;1684899;84;21747;-59
2023/09/23 10:15:14;;;;;;;8.63;3.50;;;;;;;25.37;53.29;101255.97;1650406;87;21295;-58
2023/09/23 10:18:25;;;;;;;8.50;3.15;;;;;;;25.46;53.11;101246.61;1686713;84;21241;-60
2023/09/23 10:21:31;;;;;;;12.85;3.62;;;;;;;25.57;52.91;101249.91;1700155;83;21372;-60
2023/09/23 10:24:41;;;;;;;10.45;3.30;;;;;;;25.67;52.71;101248.69;1652455;87;21216;-60
2023/09/23 10:28:02;;;;;;;12.45;3.05;;;;;;;25.73;52.46;101237.31;1706695;81;21368;-59
2023/09/23 10:31:14;;;;;;;14.75;3.90;;;;;;;25.81;52.19;101238.83;1652023;86;21239;-60
2023/09/23 10:34:20;;;;;;;11.05;3.42;;;;;;;25.90;52.01;101230.27;1699976;84;21301;-59
2023/09/23 10:37:41;;;;;;;9.93;3.35;;;;;;;25.96;51.73;101234.31;1676791;83;21220;-60
2023/09/23 10:40:47;;;;;;;11.68;3.55;;;;;;;26.03;51.48;101232.77;1716880;81;21207;-57
2023/09/23 10:44:00;;;;;;;5.40;3.00;;;;;;;26.12;51.30;101218.59;1728986;82;21250;-57
2023/09/23 10:47:10;;;;;;;9.78;3.35;;;;;;;26.20;51.11;101216.75;1733515;82;22364;-58
2023/09/23 10:50:17;;;;;;;7.05;3.33;;;;;;;26.32;50.98;101216.93;1693287;80;21213;-58
2023/09/23 10:53:23;;;;;;;11.95;3.50;;;;;;;26.42;50.79;101214.28;1734561;82;21297;-57
2023/09/23 10:56:30;;;;;;;10.65;3.22;;;;;;;26.50;50.48;101214.38;1732531;81;21211;-59
2023/09/23 10:59:35;;;;;;;6.65;3.50;;;;;;;26.56;50.23;101218.95;1718916;83;21205;-57
2023/09/23 11:02:44;;;;;;;7.67;3.33;;;;;;;26.64;50.01;101214.85;1730033;82;21745;-57
2023/09/23 11:05:51;;;;;;;6.97;3.45;;;;;;;26.70;49.79;101209.63;1733500;81;21212;-57
2023/09/23 11:08:58;;;;;;;7.00;3.10;;;;;;;26.75;49.51;101210.52;1724374;82;21197;-58
2023/09/23 11:12:27;;;;;;;10.08;3.50;;;;;;;26.79;49.26;101204.69;1723336;82;21254;-57
2023/09/23 11:15:31;;;;;;;9.00;2.83;;;;;;;26.89;49.10;101206.22;1693693;83;21221;-56
2023/09/23 11:18:36;;;;;;;7.85;3.15;;;;;;;27.03;48.86;101201.02;1669108;85;21210;-58
2023/09/23 11:21:53;;;;;;;9.80;3.45;;;;;;;27.13;48.60;101200.57;1678166;84;21264;-58
2023/09/23 11:25:01;;;;;;;13.18;3.30;;;;;;;27.22;48.36;101197.59;1719449;82;21168;-57
2023/09/23 11:28:08;;;;;;;9.40;3.20;;;;;;;27.31;48.04;101203.05;1733625;81;21195;-56
2023/09/23 11:31:14;;;;;;;8.60;3.30;;;;;;;27.39;47.77;101202.58;1723020;82;21627;-56
2023/09/23 11:34:21;;;;;;;4.95;2.80;;;;;;;27.46;47.51;101203.19;1724396;81;21235;-57
2023/09/23 11:37:27;;;;;;;8.73;3.02;;;;;;;27.55;47.30;101194.57;1726353;82;21193;-58
2023/09/23 11:40:34;;;;;;;9.25;2.70;;;;;;;27.63;47.05;101202.52;1726130;82;21217;-59
2023/09/23 11:43:42;;;;;;;5.72;3.05;;;;;;;27.69;46.73;101193.55;1718970;82;21205;-58
2023/09/23 11:46:48;;;;;;;8.60;3.12;;;;;;;27.72;46.45;101176.98;1720267;82;21216;-59
2023/09/23 11:49:54;;;;;;;15.60;5.95;;;;;;;27.83;46.25;101186.34;1728360;81;21247;-58
2023/09/23 11:53:02;;;;;;;8.85;3.05;;;;;;;27.86;45.87;101185.80;1734221;82;21203;-58
2023/09/23 11:56:09;;;;;;;8.88;3.00;;;;;;;27.86;45.49;101184.39;1735345;82;21775;-59
2023/09/23 11:59:15;;;;;;;9.30;2.90;;;;;;;27.89;45.21;101188.69;1734968;82;21259;-59
2023/09/23 12:02:21;;;;;;;10.05;5.00;;;;;;;27.91;44.95;101187.28;1730573;82;21644;-58
2023/09/23 12:05:29;;;;;;;5.42;3.15;;;;;;;27.96;44.70;101181.70;1735298;81;21251;-58
2023/09/23 12:08:37;;;;;;;7.33;2.83;;;;;;;27.97;44.47;101179.19;1735372;82;21181;-58
2023/09/23 12:11:43;;;;;;;7.83;2.92;;;;;;;28.01;44.23;101180.88;1734895;82;21204;-57
2023/09/23 12:14:50;;;;;;;9.53;3.30;;;;;;;28.05;44.01;101169.37;1734775;81;21196;-59
2023/09/23 12:17:56;;;;;;;11.45;3.05;;;;;;;28.08;43.77;101173.91;1735734;81;21231;-59
2023/09/23 12:21:02;;;;;;;9.93;2.87;;;;;;;28.08;43.46;101171.64;1735233;82;21201;-58
2023/09/23 12:24:07;;;;;;;8.28;2.98;;;;;;;28.01;43.06;101177.51;1735582;81;21780;-57
2023/09/23 12:27:17;;;;;;;10.78;2.65;;;;;;;27.94;42.80;101176.06;1736071;82;21192;-57
2023/09/23 12:30:25;;;;;;;10.80;3.22;;;;;;;27.86;42.58;101172.58;1736019;82;21199;-56
2023/09/23 12:33:31;;;;;;;12.45;2.58;;;;;;;27.80;42.41;101170.86;1735700;82;21180;-58
2023/09/23 12:36:39;;;;;;;6.33;2.87;;;;;;;27.73;42.15;101173.63;1733362;82;21756;-56
2023/09/23 12:39:43;;;;;;;6.70;2.30;;;;;;;27.64;41.89;101170.44;1735422;82;21172;-57
2023/09/23 12:42:49;;;;;;;9.88;2.70;;;;;;;27.55;41.64;101165.58;1735663;81;21212;-56
2023/09/23 12:45:55;;;;;;;3.58;2.00;;;;;;;27.47;41.45;101163.25;1735893;82;21278;-57
2023/09/23 12:49:02;;;;;;;6.50;2.30;;;;;;;27.38;41.27;101167.14;1735925;82;21350;-56
2023/09/23 12:52:09;;;;;;;10.23;2.80;;;;;;;27.33;41.13;101165.67;1719202;80;21244;-58
2023/09/23 12:55:19;;;;;;;11.83;3.22;;;;;;;27.28;41.02;101167.03;1734806;82;21263;-57
2023/09/23 12:58:24;;;;;;;9.70;2.60;;;;;;;27.21;40.71;101171.15;1734481;82;21207;-59
2023/09/23 13:01:31;;;;;;;4.20;2.52;;;;;;;27.15;40.63;101175.86;1735274;81;21255;-55
2023/09/23 13:04:37;;;;;;;6.42;2.70;;;;;;;27.10;40.47;101172.98;1744128;82;21713;-58
2023/09/23 13:07:43;;;;;;;7.50;2.60;;;;;;;27.07;40.30;101164.23;1719388;82;21164;-58
2023/09/23 13:10:49;;;;;;;3.98;2.33;;;;;;;27.01;40.16;101159.67;1734688;81;21270;-57
2023/09/23 13:13:56;;;;;;;5.45;2.85;;;;;;;26.97;40.06;101163.59;1734559;82;21223;-56
2023/09/23 13:17:03;;;;;;;9.50;3.52;;;;;;;26.96;39.97;101166.09;1733710;82;21185;-60
2023/09/23 13:20:10;;;;;;;6.12;2.58;;;;;;;26.95;39.82;101157.92;1727667;81;21243;-57
2023/09/23 13:23:17;;;;;;;8.93;2.95;;;;;;;26.93;39.68;101160.14;1713563;81;21255;-58
2023/09/23 13:26:23;;;;;;;9.65;2.60;;;;;;;26.87;39.54;101159.25;1734119;81;21208;-56
2023/09/23 13:29:31;;;;;;;10.58;2.77;;;;;;;26.84;39.47;101161.73;1730504;82;21768;-58
2023/09/23 13:32:39;;;;;;;7.92;2.80;;;;;;;26.79;39.35;101155.51;1734238;82;21807;-57
2023/09/23 13:35:46;;;;;;;4.12;2.52;;;;;;;26.75;39.25;101161.92;1734317;82;21799;-58
2023/09/23 13:38:52;;;;;;;5.83;2.40;;;;;;;26.71;39.16;101151.76;1734770;82;21212;-58
2023/09/23 13:41:57;;;;;;;8.08;2.75;;;;;;;26.67;39.07;101155.36;1734031;82;21720;-57
2023/09/23 13:45:02;;;;;;;8.30;2.70;;;;;;;26.62;38.98;101154.72;1721485;82;21179;-56
2023/09/23 13:48:08;;;;;;;4.90;2.52;;;;;;;26.59;38.88;101155.24;1703649;83;21200;-57
2023/09/23 13:51:15;;;;;;;11.30;2.60;;;;;;;26.56;38.83;101152.93;1703651;83;21224;-58
2023/09/23 13:54:21;;;;;;;5.45;2.75;;;;;;;26.53;38.77;101146.44;1705188;80;21453;-57
2023/09/23 13:57:27;;;;;;;5.65;2.50;;;;;;;26.51;38.77;101146.41;1704254;84;21427;-58
2023/09/23 14:00:33;;;;;;;4.10;2.22;;;;;;;26.45;38.71;101154.77;1703744;84;21227;-57
2023/09/23 14:03:43;;;;;;;7.83;2.70;;;;;;;26.41;38.61;101153.61;1739618;81;21245;-58
2023/09/23 14:06:48;;;;;;;6.12;2.50;;;;;;;26.41;38.60;101153.61;1727795;82;21372;-57
2023/09/23 14:09:57;;;;;;;7.58;2.55;;;;;;;26.42;38.54;101153.03;1734540;82;21259;-57
2023/09/23 14:13:04;;;;;;;6.65;2.30;;;;;;;26.38;38.45;101143.45;1734595;82;21173;-57
2023/09/23 14:16:10;;;;;;;8.88;2.70;;;;;;;26.34;38.38;101137.50;1734309;82;22052;-58
2023/09/23 14:19:19;;;;;;;7.53;2.25;;;;;;;26.28;38.35;101137.14;1734243;82;21211;-57
2023/09/23 14:22:26;;;;;;;6.67;2.70;;;;;;;26.23;38.31;101134.27;1710101;83;21220;-56